sensor_id;sensor_type;location;lat;lon;timestamp;pressure;altitude;pressure_sealevel;temperature
14666;BMP280;7420;53.574;10.040;2022-10-19T00:03:39;102743.97;;;11.50
14666;BMP280;7420;53.574;10.040;2022-10-19T00:06:15;102745.47;;;11.52
14666;BMP280;7420;53.574;10.040;2022-10-19T00:08:41;102739.16;;;11.53
14666;BMP280;7420;53.574;10.040;2022-10-19T00:11:07;102750.50;;;11.55
14666;BMP280;7420;53.574;10.040;2022-10-19T00:13:32;102747.84;;;11.55
14666;BMP280;7420;53.574;10.040;2022-10-19T00:15:58;102751.59;;;11.45
14666;BMP280;7420;53.574;10.040;2022-10-19T00:18:23;102756.47;;;11.49
14666;BMP280;7420;53.574;10.040;2022-10-19T00:20:48;102752.78;;;11.50
14666;BMP280;7420;53.574;10.040;2022-10-19T00:23:14;102758.78;;;11.44
14666;BMP280;7420;53.574;10.040;2022-10-19T00:25:39;102749.94;;;11.52
14666;BMP280;7420;53.574;10.040;2022-10-19T00:28:04;102754.47;;;11.51
14666;BMP280;7420;53.574;10.040;2022-10-19T00:30:29;102754.47;;;11.51
14666;BMP280;7420;53.574;10.040;2022-10-19T00:32:55;102751.50;;;11.54
14666;BMP280;7420;53.574;10.040;2022-10-19T00:35:20;102759.13;;;11.57
14666;BMP280;7420;53.574;10.040;2022-10-19T00:37:46;102765.97;;;11.60
14666;BMP280;7420;53.574;10.040;2022-10-19T00:40:12;102764.47;;;11.57
14666;BMP280;7420;53.574;10.040;2022-10-19T00:42:37;102763.97;;;11.54
14666;BMP280;7420;53.574;10.040;2022-10-19T00:45:08;102766.50;;;11.55
14666;BMP280;7420;53.574;10.040;2022-10-19T00:47:35;102770.31;;;11.61
14666;BMP280;7420;53.574;10.040;2022-10-19T00:50:00;102779.28;;;11.60
14666;BMP280;7420;53.574;10.040;2022-10-19T00:52:26;102782.47;;;11.55
14666;BMP280;7420;53.574;10.040;2022-10-19T00:54:53;102775.78;;;11.51
14666;BMP280;7420;53.574;10.040;2022-10-19T00:57:19;102770.81;;;11.56
14666;BMP280;7420;53.574;10.040;2022-10-19T00:59:45;102773.13;;;11.51
14666;BMP280;7420;53.574;10.040;2022-10-19T01:02:11;102779.44;;;11.50
14666;BMP280;7420;53.574;10.040;2022-10-19T01:04:39;102773.78;;;11.53
14666;BMP280;7420;53.574;10.040;2022-10-19T01:07:06;102771.44;;;11.50
14666;BMP280;7420;53.574;10.040;2022-10-19T01:09:32;102776.44;;;11.53
14666;BMP280;7420;53.574;10.040;2022-10-19T01:28:31;102767.94;;;11.50
14666;BMP280;7420;53.574;10.040;2022-10-19T01:31:50;102766.25;;;11.49
14666;BMP280;7420;53.574;10.040;2022-10-19T01:34:12;102767.78;;;11.51
14666;BMP280;7420;53.574;10.040;2022-10-19T01:37:13;102762.28;;;11.53
14666;BMP280;7420;53.574;10.040;2022-10-19T01:39:59;102764.13;;;11.52
14666;BMP280;7420;53.574;10.040;2022-10-19T01:42:31;102767.31;;;11.56
14666;BMP280;7420;53.574;10.040;2022-10-19T01:45:01;102778.78;;;11.48
14666;BMP280;7420;53.574;10.040;2022-10-19T01:47:41;102776.91;;;11.49
14666;BMP280;7420;53.574;10.040;2022-10-19T01:50:13;102769.09;;;11.47
14666;BMP280;7420;53.574;10.040;2022-10-19T01:52:40;102780.09;;;11.52
14666;BMP280;7420;53.574;10.040;2022-10-19T01:55:07;102770.78;;;11.48
14666;BMP280;7420;53.574;10.040;2022-10-19T01:57:39;102776.44;;;11.45
14666;BMP280;7420;53.574;10.040;2022-10-19T02:00:07;102775.25;;;11.48
14666;BMP280;7420;53.574;10.040;2022-10-19T02:02:35;102769.75;;;11.42
14666;BMP280;7420;53.574;10.040;2022-10-19T02:05:04;102769.44;;;11.44
14666;BMP280;7420;53.574;10.040;2022-10-19T02:07:30;102773.78;;;11.45
14666;BMP280;7420;53.574;10.040;2022-10-19T02:09:56;102764.09;;;11.37
14666;BMP280;7420;53.574;10.040;2022-10-19T02:14:52;102780.59;;;11.32
14666;BMP280;7420;53.574;10.040;2022-10-19T02:17:23;102768.94;;;11.33
14666;BMP280;7420;53.574;10.040;2022-10-19T02:19:52;102764.09;;;11.29
14666;BMP280;7420;53.574;10.040;2022-10-19T02:22:17;102766.28;;;11.33
14666;BMP280;7420;53.574;10.040;2022-10-19T02:24:43;102769.94;;;11.32
14666;BMP280;7420;53.574;10.040;2022-10-19T02:27:08;102774.06;;;11.35
14666;BMP280;7420;53.574;10.040;2022-10-19T02:29:35;102771.06;;;11.30
14666;BMP280;7420;53.574;10.040;2022-10-19T02:32:01;102759.75;;;11.28
14666;BMP280;7420;53.574;10.040;2022-10-19T02:34:26;102759.59;;;11.29
14666;BMP280;7420;53.574;10.040;2022-10-19T02:36:52;102761.09;;;11.32
14666;BMP280;7420;53.574;10.040;2022-10-19T02:39:18;102764.09;;;11.29
14666;BMP280;7420;53.574;10.040;2022-10-19T02:41:49;102766.75;;;11.29
14666;BMP280;7420;53.574;10.040;2022-10-19T02:44:29;102768.75;;;11.35
14666;BMP280;7420;53.574;10.040;2022-10-19T02:47:26;102769.25;;;11.22
14666;BMP280;7420;53.574;10.040;2022-10-19T02:49:54;102770.59;;;11.26
14666;BMP280;7420;53.574;10.040;2022-10-19T02:52:19;102776.91;;;11.25
14666;BMP280;7420;53.574;10.040;2022-10-19T02:54:45;102776.75;;;11.35
14666;BMP280;7420;53.574;10.040;2022-10-19T02:57:18;102767.91;;;11.26
14666;BMP280;7420;53.574;10.040;2022-10-19T02:59:44;102776.75;;;11.35
14666;BMP280;7420;53.574;10.040;2022-10-19T03:02:10;102771.59;;;11.33
14666;BMP280;7420;53.574;10.040;2022-10-19T03:04:35;102778.41;;;11.36
14666;BMP280;7420;53.574;10.040;2022-10-19T03:07:01;102776.41;;;11.30
14666;BMP280;7420;53.574;10.040;2022-10-19T03:09:26;102771.28;;;11.36
14666;BMP280;7420;53.574;10.040;2022-10-19T03:11:54;102770.91;;;11.39
14666;BMP280;7420;53.574;10.040;2022-10-19T03:14:19;102772.25;;;11.35
14666;BMP280;7420;53.574;10.040;2022-10-19T03:16:45;102769.75;;;11.34
14666;BMP280;7420;53.574;10.040;2022-10-19T03:19:10;102774.56;;;11.38
14666;BMP280;7420;53.574;10.040;2022-10-19T03:21:35;102781.94;;;11.36
14666;BMP280;7420;53.574;10.040;2022-10-19T03:24:01;102793.03;;;11.32
14666;BMP280;7420;53.574;10.040;2022-10-19T03:26:26;102795.38;;;11.35
14666;BMP280;7420;53.574;10.040;2022-10-19T03:28:51;102802.69;;;11.25
14666;BMP280;7420;53.574;10.040;2022-10-19T03:31:17;102808.31;;;11.22
14666;BMP280;7420;53.574;10.040;2022-10-19T03:33:43;102802.44;;;11.02
14666;BMP280;7420;53.574;10.040;2022-10-19T03:36:29;102811.13;;;11.12
14666;BMP280;7420;53.574;10.040;2022-10-19T03:38:56;102808.34;;;11.14
14666;BMP280;7420;53.574;10.040;2022-10-19T03:41:24;102811.81;;;11.14
14666;BMP280;7420;53.574;10.040;2022-10-19T03:43:50;102817.81;;;11.16
14666;BMP280;7420;53.574;10.040;2022-10-19T03:46:16;102808.66;;;11.11
14666;BMP280;7420;53.574;10.040;2022-10-19T03:48:42;102810.81;;;11.15
14666;BMP280;7420;53.574;10.040;2022-10-19T03:51:13;102805.50;;;11.15
14666;BMP280;7420;53.574;10.040;2022-10-19T03:53:38;102812.97;;;11.12
14666;BMP280;7420;53.574;10.040;2022-10-19T03:56:06;102812.66;;;11.15
14666;BMP280;7420;53.574;10.040;2022-10-19T03:58:33;102816.47;;;11.12
14666;BMP280;7420;53.574;10.040;2022-10-19T04:00:59;102818.31;;;11.20
14666;BMP280;7420;53.574;10.040;2022-10-19T04:03:24;102830.63;;;11.21
14666;BMP280;7420;53.574;10.040;2022-10-19T04:05:50;102825.28;;;11.21
14666;BMP280;7420;53.574;10.040;2022-10-19T04:08:16;102831.63;;;11.20
14666;BMP280;7420;53.574;10.040;2022-10-19T04:10:41;102825.44;;;11.11
14666;BMP280;7420;53.574;10.040;2022-10-19T04:13:07;102835.13;;;11.20
14666;BMP280;7420;53.574;10.040;2022-10-19T04:15:32;102833.13;;;11.22
14666;BMP280;7420;53.574;10.040;2022-10-19T04:17:57;102838.28;;;11.24
14666;BMP280;7420;53.574;10.040;2022-10-19T04:20:22;102841.94;;;11.23
14666;BMP280;7420;53.574;10.040;2022-10-19T04:22:48;102835.94;;;11.21
14666;BMP280;7420;53.574;10.040;2022-10-19T04:25:13;102833.81;;;11.24
14666;BMP280;7420;53.574;10.040;2022-10-19T04:27:38;102830.31;;;11.16
14666;BMP280;7420;53.574;10.040;2022-10-19T04:30:04;102834.28;;;11.20
14666;BMP280;7420;53.574;10.040;2022-10-19T04:32:30;102841.28;;;11.21
14666;BMP280;7420;53.574;10.040;2022-10-19T04:34:55;102831.78;;;11.18
14666;BMP280;7420;53.574;10.040;2022-10-19T04:37:20;102834.28;;;11.20
14666;BMP280;7420;53.574;10.040;2022-10-19T04:39:45;102838.59;;;11.21
14666;BMP280;7420;53.574;10.040;2022-10-19T04:42:11;102841.28;;;11.21
14666;BMP280;7420;53.574;10.040;2022-10-19T04:44:36;102842.94;;;11.22
14666;BMP280;7420;53.574;10.040;2022-10-19T04:47:01;102842.63;;;11.17
14666;BMP280;7420;53.574;10.040;2022-10-19T04:49:27;102848.09;;;11.15
14666;BMP280;7420;53.574;10.040;2022-10-19T04:51:52;102850.59;;;11.17
14666;BMP280;7420;53.574;10.040;2022-10-19T04:54:17;102853.28;;;11.17
14666;BMP280;7420;53.574;10.040;2022-10-19T04:56:42;102851.25;;;11.19
14666;BMP280;7420;53.574;10.040;2022-10-19T04:59:08;102850.59;;;11.17
14666;BMP280;7420;53.574;10.040;2022-10-19T05:01:34;102848.94;;;11.16
14666;BMP280;7420;53.574;10.040;2022-10-19T05:04:01;102850.59;;;11.17
14666;BMP280;7420;53.574;10.040;2022-10-19T05:06:27;102851.59;;;11.24
14666;BMP280;7420;53.574;10.040;2022-10-19T05:08:52;102845.94;;;11.27
14666;BMP280;7420;53.574;10.040;2022-10-19T05:11:18;102845.31;;;11.33
14666;BMP280;7420;53.574;10.040;2022-10-19T05:13:44;102845.66;;;11.38
14666;BMP280;7420;53.574;10.040;2022-10-19T05:16:12;102852.13;;;11.27
14666;BMP280;7420;53.574;10.040;2022-10-19T05:18:38;102853.13;;;11.26
14666;BMP280;7420;53.574;10.040;2022-10-19T05:21:06;102859.94;;;11.29
14666;BMP280;7420;53.574;10.040;2022-10-19T05:23:32;102856.47;;;11.28
14666;BMP280;7420;53.574;10.040;2022-10-19T05:28:31;102846.28;;;11.24
14666;BMP280;7420;53.574;10.040;2022-10-19T05:31:08;102854.13;;;11.25
14666;BMP280;7420;53.574;10.040;2022-10-19T05:33:34;102847.13;;;11.24
14666;BMP280;7420;53.574;10.040;2022-10-19T05:38:36;102846.41;;;11.14
14666;BMP280;7420;53.574;10.040;2022-10-19T05:41:01;102854.75;;;11.19
14666;BMP280;7420;53.574;10.040;2022-10-19T05:43:27;102850.25;;;11.20
14666;BMP280;7420;53.574;10.040;2022-10-19T05:45:52;102843.47;;;11.25
14666;BMP280;7420;53.574;10.040;2022-10-19T05:48:17;102843.63;;;11.16
14666;BMP280;7420;53.574;10.040;2022-10-19T05:50:52;102846.28;;;11.24
14666;BMP280;7420;53.574;10.040;2022-10-19T05:53:18;102844.63;;;11.31
14666;BMP280;7420;53.574;10.040;2022-10-19T05:55:43;102837.97;;;11.27
14666;BMP280;7420;53.574;10.040;2022-10-19T05:58:09;102855.56;;;11.20
14666;BMP280;7420;53.574;10.040;2022-10-19T06:00:34;102850.94;;;11.14
14666;BMP280;7420;53.574;10.040;2022-10-19T06:02:59;102850.78;;;11.23
14666;BMP280;7420;53.574;10.040;2022-10-19T06:05:24;102852.59;;;11.23
14666;BMP280;7420;53.574;10.040;2022-10-19T06:07:50;102848.94;;;11.24
14666;BMP280;7420;53.574;10.040;2022-10-19T06:10:15;102850.25;;;11.20
14666;BMP280;7420;53.574;10.040;2022-10-19T06:12:41;102861.09;;;11.18
14666;BMP280;7420;53.574;10.040;2022-10-19T06:15:06;102863.59;;;11.28
14666;BMP280;7420;53.574;10.040;2022-10-19T06:17:32;102858.28;;;11.28
14666;BMP280;7420;53.574;10.040;2022-10-19T06:19:57;102863.28;;;11.31
14666;BMP280;7420;53.574;10.040;2022-10-19T06:22:22;102862.94;;;11.34
14666;BMP280;7420;53.574;10.040;2022-10-19T06:24:48;102855.47;;;11.29
14666;BMP280;7420;53.574;10.040;2022-10-19T06:27:13;102855.28;;;11.31
14666;BMP280;7420;53.574;10.040;2022-10-19T06:29:38;102857.63;;;11.34
14666;BMP280;7420;53.574;10.040;2022-10-19T06:32:04;102850.97;;;11.38
14666;BMP280;7420;53.574;10.040;2022-10-19T06:34:29;102860.00;;;11.44
14666;BMP280;7420;53.574;10.040;2022-10-19T06:36:54;102858.66;;;11.41
14666;BMP280;7420;53.574;10.040;2022-10-19T06:39:20;102856.34;;;11.53
14666;BMP280;7420;53.574;10.040;2022-10-19T06:41:45;102855.47;;;11.45
14666;BMP280;7420;53.574;10.040;2022-10-19T06:44:10;102865.69;;;11.57
14666;BMP280;7420;53.574;10.040;2022-10-19T06:46:35;102852.56;;;11.72
14666;BMP280;7420;53.574;10.040;2022-10-19T06:49:01;102851.06;;;11.77
14666;BMP280;7420;53.574;10.040;2022-10-19T06:51:28;102858.09;;;11.86
14666;BMP280;7420;53.574;10.040;2022-10-19T06:53:54;102857.22;;;11.86
14666;BMP280;7420;53.574;10.040;2022-10-19T06:56:19;102856.06;;;11.96
14666;BMP280;7420;53.574;10.040;2022-10-19T06:58:45;102850.25;;;12.01
14666;BMP280;7420;53.574;10.040;2022-10-19T07:01:11;102860.91;;;11.93
14666;BMP280;7420;53.574;10.040;2022-10-19T07:03:38;102867.38;;;11.98
14666;BMP280;7420;53.574;10.040;2022-10-19T07:06:09;102868.75;;;11.94
14666;BMP280;7420;53.574;10.040;2022-10-19T07:08:36;102871.41;;;11.86
14666;BMP280;7420;53.574;10.040;2022-10-19T07:11:05;102873.22;;;11.94
14666;BMP280;7420;53.574;10.040;2022-10-19T07:13:31;102865.75;;;11.89
14666;BMP280;7420;53.574;10.040;2022-10-19T07:15:57;102868.88;;;11.77
14666;BMP280;7420;53.574;10.040;2022-10-19T07:18:23;102871.53;;;11.77
14666;BMP280;7420;53.574;10.040;2022-10-19T07:20:59;102883.41;;;11.90
14666;BMP280;7420;53.574;10.040;2022-10-19T07:23:27;102889.06;;;11.95
14666;BMP280;7420;53.574;10.040;2022-10-19T07:25:53;102887.75;;;11.91
14666;BMP280;7420;53.574;10.040;2022-10-19T07:28:24;102888.06;;;11.96
14666;BMP280;7420;53.574;10.040;2022-10-19T07:30:49;102889.06;;;12.03
14666;BMP280;7420;53.574;10.040;2022-10-19T07:33:14;102890.56;;;11.98
14666;BMP280;7420;53.574;10.040;2022-10-19T07:35:40;102901.56;;;11.95
14666;BMP280;7420;53.574;10.040;2022-10-19T07:38:05;102898.06;;;12.02
14666;BMP280;7420;53.574;10.040;2022-10-19T07:40:30;102899.38;;;12.06
14666;BMP280;7420;53.574;10.040;2022-10-19T07:42:56;102897.56;;;12.07
14666;BMP280;7420;53.574;10.040;2022-10-19T07:45:21;102896.53;;;12.16
14666;BMP280;7420;53.574;10.040;2022-10-19T07:47:46;102906.41;;;12.15
14666;BMP280;7420;53.574;10.040;2022-10-19T07:50:11;102904.72;;;12.14
14666;BMP280;7420;53.574;10.040;2022-10-19T07:52:37;102915.72;;;12.19
14666;BMP280;7420;53.574;10.040;2022-10-19T07:55:02;102915.88;;;12.26
14666;BMP280;7420;53.574;10.040;2022-10-19T07:57:27;102914.56;;;12.38
14666;BMP280;7420;53.574;10.040;2022-10-19T07:59:53;102911.75;;;12.31
14666;BMP280;7420;53.574;10.040;2022-10-19T08:02:18;102919.41;;;12.34
14666;BMP280;7420;53.574;10.040;2022-10-19T08:04:44;102923.88;;;12.34
14666;BMP280;7420;53.574;10.040;2022-10-19T08:07:10;102926.03;;;12.38
14666;BMP280;7420;53.574;10.040;2022-10-19T08:09:35;102915.22;;;12.32
14666;BMP280;7420;53.574;10.040;2022-10-19T08:12:00;102913.69;;;12.37
14666;BMP280;7420;53.574;10.040;2022-10-19T08:14:26;102915.03;;;12.49
14666;BMP280;7420;53.574;10.040;2022-10-19T08:16:51;102922.56;;;12.54
14666;BMP280;7420;53.574;10.040;2022-10-19T08:19:16;102920.56;;;12.48
14666;BMP280;7420;53.574;10.040;2022-10-19T08:21:44;102916.84;;;12.57
14666;BMP280;7420;53.574;10.040;2022-10-19T08:24:11;102918.69;;;12.56
14666;BMP280;7420;53.574;10.040;2022-10-19T08:26:38;102913.88;;;12.44
14666;BMP280;7420;53.574;10.040;2022-10-19T08:29:13;102917.19;;;12.61
14666;BMP280;7420;53.574;10.040;2022-10-19T08:31:39;102918.69;;;12.72
14666;BMP280;7420;53.574;10.040;2022-10-19T08:34:05;102927.03;;;12.69
14666;BMP280;7420;53.574;10.040;2022-10-19T08:36:31;102930.84;;;12.66
14666;BMP280;7420;53.574;10.040;2022-10-19T08:39:00;102931.38;;;12.62
14666;BMP280;7420;53.574;10.040;2022-10-19T08:44:25;102943.19;;;12.91
14666;BMP280;7420;53.574;10.040;2022-10-19T08:46:59;102930.63;;;13.08
14666;BMP280;7420;53.574;10.040;2022-10-19T08:49:29;102938.22;;;13.19
14666;BMP280;7420;53.574;10.040;2022-10-19T08:52:03;102939.13;;;13.50
14666;BMP280;7420;53.574;10.040;2022-10-19T08:54:36;102940.53;;;13.30
14666;BMP280;7420;53.574;10.040;2022-10-19T09:00:00;102935.25;;;13.14
14666;BMP280;7420;53.574;10.040;2022-10-19T09:02:44;102940.16;;;12.94
14666;BMP280;7420;53.574;10.040;2022-10-19T09:05:31;102941.00;;;12.95
14666;BMP280;7420;53.574;10.040;2022-10-19T09:07:59;102941.78;;;13.03
14666;BMP280;7420;53.574;10.040;2022-10-19T09:10:28;102946.78;;;13.14
14666;BMP280;7420;53.574;10.040;2022-10-19T09:15:43;102949.63;;;13.13
14666;BMP280;7420;53.574;10.040;2022-10-19T09:18:29;102949.88;;;13.34
14666;BMP280;7420;53.574;10.040;2022-10-19T09:21:03;102953.78;;;13.54
14666;BMP280;7420;53.574;10.040;2022-10-19T09:23:42;102949.06;;;13.64
14666;BMP280;7420;53.574;10.040;2022-10-19T09:26:12;102960.19;;;13.45
14666;BMP280;7420;53.574;10.040;2022-10-19T09:28:46;102953.00;;;13.37
14666;BMP280;7420;53.574;10.040;2022-10-19T09:31:17;102954.34;;;13.41
14666;BMP280;7420;53.574;10.040;2022-10-19T09:33:51;102957.66;;;13.43
14666;BMP280;7420;53.574;10.040;2022-10-19T09:36:19;102955.19;;;13.42
14666;BMP280;7420;53.574;10.040;2022-10-19T09:38:46;102956.50;;;13.46
14666;BMP280;7420;53.574;10.040;2022-10-19T09:41:19;102962.16;;;13.51
14666;BMP280;7420;53.574;10.040;2022-10-19T09:43:52;102955.28;;;13.56
14666;BMP280;7420;53.574;10.040;2022-10-19T09:49:03;102954.66;;;13.46
14666;BMP280;7420;53.574;10.040;2022-10-19T09:51:44;102951.88;;;13.32
14666;BMP280;7420;53.574;10.040;2022-10-19T09:54:25;102955.75;;;13.29
14666;BMP280;7420;53.574;10.040;2022-10-19T09:56:53;102957.22;;;13.32
14666;BMP280;7420;53.574;10.040;2022-10-19T09:59:21;102954.75;;;13.30
14666;BMP280;7420;53.574;10.040;2022-10-19T10:01:58;102960.38;;;13.35
14666;BMP280;7420;53.574;10.040;2022-10-19T10:04:25;102965.09;;;13.25
14666;BMP280;7420;53.574;10.040;2022-10-19T10:06:53;102955.53;;;13.39
14666;BMP280;7420;53.574;10.040;2022-10-19T10:09:23;102960.25;;;13.29
14666;BMP280;7420;53.574;10.040;2022-10-19T10:11:52;102960.78;;;13.55
14666;BMP280;7420;53.574;10.040;2022-10-19T10:14:37;102952.75;;;13.55
14666;BMP280;7420;53.574;10.040;2022-10-19T10:17:10;102947.66;;;13.76
14666;BMP280;7420;53.574;10.040;2022-10-19T10:19:48;102944.38;;;13.66
14666;BMP280;7420;53.574;10.040;2022-10-19T10:22:30;102954.13;;;14.03
14666;BMP280;7420;53.574;10.040;2022-10-19T10:24:56;102952.56;;;14.39
14666;BMP280;7420;53.574;10.040;2022-10-19T10:27:33;102950.59;;;14.70
14666;BMP280;7420;53.574;10.040;2022-10-19T10:30:04;102952.44;;;14.84
14666;BMP280;7420;53.574;10.040;2022-10-19T10:32:30;102959.84;;;15.11
14666;BMP280;7420;53.574;10.040;2022-10-19T10:35:05;102960.88;;;15.24
14666;BMP280;7420;53.574;10.040;2022-10-19T10:37:43;102962.53;;;15.54
14666;BMP280;7420;53.574;10.040;2022-10-19T10:40:35;102964.50;;;15.46
14666;BMP280;7420;53.574;10.040;2022-10-19T10:43:26;102963.59;;;15.74
14666;BMP280;7420;53.574;10.040;2022-10-19T10:45:53;102961.31;;;15.92
14666;BMP280;7420;53.574;10.040;2022-10-19T10:48:31;102956.41;;;15.96
14666;BMP280;7420;53.574;10.040;2022-10-19T10:50:58;102954.75;;;16.15
14666;BMP280;7420;53.574;10.040;2022-10-19T10:53:38;102957.28;;;16.03
14666;BMP280;7420;53.574;10.040;2022-10-19T10:56:16;102953.16;;;16.21
14666;BMP280;7420;53.574;10.040;2022-10-19T10:58:56;102943.28;;;16.49
14666;BMP280;7420;53.574;10.040;2022-10-19T11:01:34;102948.22;;;16.66
14666;BMP280;7420;53.574;10.040;2022-10-19T11:04:14;102944.56;;;16.53
14666;BMP280;7420;53.574;10.040;2022-10-19T11:06:44;102942.28;;;16.77
14666;BMP280;7420;53.574;10.040;2022-10-19T11:09:40;102936.09;;;17.11
14666;BMP280;7420;53.574;10.040;2022-10-19T11:12:10;102926.13;;;17.38
14666;BMP280;7420;53.574;10.040;2022-10-19T11:14:47;102927.84;;;17.59
14666;BMP280;7420;53.574;10.040;2022-10-19T11:17:17;102934.97;;;18.05
14666;BMP280;7420;53.574;10.040;2022-10-19T11:19:45;102927.97;;;18.17
14666;BMP280;7420;53.574;10.040;2022-10-19T11:22:22;102932.13;;;18.20
14666;BMP280;7420;53.574;10.040;2022-10-19T11:30:18;102907.75;;;17.08
14666;BMP280;7420;53.574;10.040;2022-10-19T11:33:05;102917.03;;;16.99
14666;BMP280;7420;53.574;10.040;2022-10-19T11:40:35;102917.63;;;16.67
14666;BMP280;7420;53.574;10.040;2022-10-19T11:45:53;102900.16;;;16.78
14666;BMP280;7420;53.574;10.040;2022-10-19T11:48:39;102898.91;;;16.80
14666;BMP280;7420;53.574;10.040;2022-10-19T11:51:15;102896.81;;;16.76
14666;BMP280;7420;53.574;10.040;2022-10-19T12:01:54;102871.94;;;16.33
14666;BMP280;7420;53.574;10.040;2022-10-19T12:07:16;102866.78;;;17.40
14666;BMP280;7420;53.574;10.040;2022-10-19T12:12:25;102860.47;;;17.86
14666;BMP280;7420;53.574;10.040;2022-10-19T12:15:26;102868.91;;;17.11
14666;BMP280;7420;53.574;10.040;2022-10-19T12:17:56;102860.44;;;18.64
14666;BMP280;7420;53.574;10.040;2022-10-19T12:20:33;102843.88;;;17.76
14666;BMP280;7420;53.574;10.040;2022-10-19T12:23:16;102851.38;;;18.33
14666;BMP280;7420;53.574;10.040;2022-10-19T12:25:45;102837.22;;;19.88
14666;BMP280;7420;53.574;10.040;2022-10-19T12:28:21;102829.19;;;20.73
14666;BMP280;7420;53.574;10.040;2022-10-19T12:30:49;102832.34;;;21.05
14666;BMP280;7420;53.574;10.040;2022-10-19T12:35:54;102816.50;;;21.79
14666;BMP280;7420;53.574;10.040;2022-10-19T12:46:36;102817.56;;;23.32
14666;BMP280;7420;53.574;10.040;2022-10-19T12:52:43;102816.63;;;23.27
14666;BMP280;7420;53.574;10.040;2022-10-19T12:55:24;102808.66;;;24.30
14666;BMP280;7420;53.574;10.040;2022-10-19T12:57:59;102798.31;;;22.43
14666;BMP280;7420;53.574;10.040;2022-10-19T13:00:33;102811.94;;;24.49
14666;BMP280;7420;53.574;10.040;2022-10-19T13:03:14;102809.81;;;25.15
14666;BMP280;7420;53.574;10.040;2022-10-19T13:05:40;102804.28;;;26.25
14666;BMP280;7420;53.574;10.040;2022-10-19T13:08:06;102799.59;;;29.11
14666;BMP280;7420;53.574;10.040;2022-10-19T13:10:32;102792.84;;;32.62
14666;BMP280;7420;53.574;10.040;2022-10-19T13:17:58;102778.03;;;35.78
14666;BMP280;7420;53.574;10.040;2022-10-19T13:25:30;102789.06;;;36.41
14666;BMP280;7420;53.574;10.040;2022-10-19T13:36:11;102760.03;;;37.05
14666;BMP280;7420;53.574;10.040;2022-10-19T13:41:27;102760.38;;;37.56
14666;BMP280;7420;53.574;10.040;2022-10-19T13:46:57;102754.63;;;36.59
14666;BMP280;7420;53.574;10.040;2022-10-19T13:49:49;102759.00;;;36.60
14666;BMP280;7420;53.574;10.040;2022-10-19T14:00:36;102740.72;;;37.29
14666;BMP280;7420;53.574;10.040;2022-10-19T14:03:37;102744.13;;;36.07
14666;BMP280;7420;53.574;10.040;2022-10-19T14:06:21;102748.16;;;36.47
14666;BMP280;7420;53.574;10.040;2022-10-19T14:11:39;102742.53;;;36.64
14666;BMP280;7420;53.574;10.040;2022-10-19T14:14:17;102744.94;;;35.90
14666;BMP280;7420;53.574;10.040;2022-10-19T14:16:53;102740.81;;;35.67
14666;BMP280;7420;53.574;10.040;2022-10-19T14:19:30;102738.69;;;35.64
14666;BMP280;7420;53.574;10.040;2022-10-19T14:22:00;102723.06;;;28.23
14666;BMP280;7420;53.574;10.040;2022-10-19T14:24:41;102744.44;;;33.09
14666;BMP280;7420;53.574;10.040;2022-10-19T14:27:06;102735.19;;;33.49
14666;BMP280;7420;53.574;10.040;2022-10-19T14:29:46;102736.44;;;32.05
14666;BMP280;7420;53.574;10.040;2022-10-19T14:32:12;102730.34;;;32.35
14666;BMP280;7420;53.574;10.040;2022-10-19T14:34:43;102727.72;;;32.71
14666;BMP280;7420;53.574;10.040;2022-10-19T14:37:28;102720.84;;;31.56
14666;BMP280;7420;53.574;10.040;2022-10-19T14:40:21;102712.19;;;30.57
14666;BMP280;7420;53.574;10.040;2022-10-19T14:42:45;102708.22;;;29.69
14666;BMP280;7420;53.574;10.040;2022-10-19T14:45:30;102720.09;;;25.56
14666;BMP280;7420;53.574;10.040;2022-10-19T14:50:27;102720.53;;;20.17
14666;BMP280;7420;53.574;10.040;2022-10-19T14:53:18;102720.47;;;19.99
14666;BMP280;7420;53.574;10.040;2022-10-19T14:55:47;102713.25;;;19.44
14666;BMP280;7420;53.574;10.040;2022-10-19T14:58:17;102717.41;;;19.71
14666;BMP280;7420;53.574;10.040;2022-10-19T15:00:47;102713.00;;;20.55
14666;BMP280;7420;53.574;10.040;2022-10-19T15:03:26;102722.06;;;20.78
14666;BMP280;7420;53.574;10.040;2022-10-19T15:06:00;102714.22;;;20.59
14666;BMP280;7420;53.574;10.040;2022-10-19T15:10:52;102720.84;;;18.48
14666;BMP280;7420;53.574;10.040;2022-10-19T15:13:27;102714.09;;;18.76
14666;BMP280;7420;53.574;10.040;2022-10-19T15:15:54;102705.66;;;21.20
14666;BMP280;7420;53.574;10.040;2022-10-19T15:18:25;102702.44;;;24.15
14666;BMP280;7420;53.574;10.040;2022-10-19T15:21:14;102709.78;;;24.52
14666;BMP280;7420;53.574;10.040;2022-10-19T15:23:42;102701.94;;;23.47
14666;BMP280;7420;53.574;10.040;2022-10-19T15:26:35;102693.75;;;22.59
14666;BMP280;7420;53.574;10.040;2022-10-19T15:29:17;102697.91;;;20.11
14666;BMP280;7420;53.574;10.040;2022-10-19T15:31:42;102704.38;;;17.28
14666;BMP280;7420;53.574;10.040;2022-10-19T15:34:21;102709.84;;;16.01
14666;BMP280;7420;53.574;10.040;2022-10-19T15:36:59;102712.41;;;15.33
14666;BMP280;7420;53.574;10.040;2022-10-19T15:39:32;102717.09;;;15.10
14666;BMP280;7420;53.574;10.040;2022-10-19T15:42:35;102711.72;;;14.89
14666;BMP280;7420;53.574;10.040;2022-10-19T15:45:04;102708.00;;;14.69
14666;BMP280;7420;53.574;10.040;2022-10-19T15:50:53;102708.63;;;14.21
14666;BMP280;7420;53.574;10.040;2022-10-19T15:53:19;102711.72;;;14.10
14666;BMP280;7420;53.574;10.040;2022-10-19T15:55:45;102705.72;;;14.08
14666;BMP280;7420;53.574;10.040;2022-10-19T15:58:12;102702.19;;;13.79
14666;BMP280;7420;53.574;10.040;2022-10-19T16:00:38;102702.31;;;13.85
14666;BMP280;7420;53.574;10.040;2022-10-19T16:03:04;102693.97;;;13.66
14666;BMP280;7420;53.574;10.040;2022-10-19T16:05:30;102698.47;;;13.66
14666;BMP280;7420;53.574;10.040;2022-10-19T16:07:55;102701.16;;;13.66
14666;BMP280;7420;53.574;10.040;2022-10-19T16:10:23;102705.91;;;13.56
14666;BMP280;7420;53.574;10.040;2022-10-19T16:12:48;102706.00;;;13.48
14666;BMP280;7420;53.574;10.040;2022-10-19T16:15:16;102701.25;;;13.35